<?xml version="1.0" encoding="UTF-8" standalone="no" ?>
<gpx xmlns="http://www.topografix.com/GPX/1/1" xmlns:xsi="http://www.w3.org/2001/XMLSchema-instance" xsi:schemaLocation="http://www.topografix.com/GPX/1/1 http://www.topografix.com/GPX/1/1/gpx.xsd" version="1.1" creator="VisuGPX - https://www.visugpx.com">
  <metadata>
    <name>Le Monts Rebut</name>
    <desc><![CDATA[Le Monts Rebut (26 Drôme)]]></desc>
  </metadata>
  <trk>
    <name><![CDATA[Mont Rebuts]]></name>
    <trkseg>
      <trkpt lat="45.12017" lon="4.98694">
        <ele>203</ele>
        <time>2009-03-04T13:01:04Z</time>
      </trkpt>
      <trkpt lat="45.12031" lon="4.98688">
        <ele>203</ele>
        <time>2009-03-04T13:01:06Z</time>
      </trkpt>
      <trkpt lat="45.12017" lon="4.98555">
        <ele>204</ele>
        <time>2009-03-04T13:01:21Z</time>
      </trkpt>
      <trkpt lat="45.12018" lon="4.98513">
        <ele>205</ele>
        <time>2009-03-04T13:01:26Z</time>
      </trkpt>
      <trkpt lat="45.1202" lon="4.98488">
        <ele>205</ele>
        <time>2009-03-04T13:01:29Z</time>
      </trkpt>
      <trkpt lat="45.12036" lon="4.9843">
        <ele>205</ele>
        <time>2009-03-04T13:01:36Z</time>
      </trkpt>
      <trkpt lat="45.12051" lon="4.98414">
        <ele>206</ele>
        <time>2009-03-04T13:01:39Z</time>
      </trkpt>
      <trkpt lat="45.12058" lon="4.98398">
        <ele>206</ele>
        <time>2009-03-04T13:01:41Z</time>
      </trkpt>
      <trkpt lat="45.12056" lon="4.98382">
        <ele>206</ele>
        <time>2009-03-04T13:01:43Z</time>
      </trkpt>
      <trkpt lat="45.12045" lon="4.98371">
        <ele>204</ele>
        <time>2009-03-04T13:01:45Z</time>
      </trkpt>
      <trkpt lat="45.12068" lon="4.98288">
        <ele>205</ele>
        <time>2009-03-04T13:01:55Z</time>
      </trkpt>
      <trkpt lat="45.12069" lon="4.98211">
        <ele>205</ele>
        <time>2009-03-04T13:02:04Z</time>
      </trkpt>
      <trkpt lat="45.12062" lon="4.98102">
        <ele>204</ele>
        <time>2009-03-04T13:02:16Z</time>
      </trkpt>
      <trkpt lat="45.12055" lon="4.9806">
        <ele>204</ele>
        <time>2009-03-04T13:02:21Z</time>
      </trkpt>
      <trkpt lat="45.1203" lon="4.9798">
        <ele>201</ele>
        <time>2009-03-04T13:02:31Z</time>
      </trkpt>
      <trkpt lat="45.11962" lon="4.97643">
        <ele>198</ele>
        <time>2009-03-04T13:03:10Z</time>
      </trkpt>
      <trkpt lat="45.11939" lon="4.97559">
        <ele>195</ele>
        <time>2009-03-04T13:03:21Z</time>
      </trkpt>
      <trkpt lat="45.11959" lon="4.97543">
        <ele>200</ele>
        <time>2009-03-04T13:03:24Z</time>
      </trkpt>
      <trkpt lat="45.11967" lon="4.97519">
        <ele>199</ele>
        <time>2009-03-04T13:03:27Z</time>
      </trkpt>
      <trkpt lat="45.11968" lon="4.97501">
        <ele>199</ele>
        <time>2009-03-04T13:03:29Z</time>
      </trkpt>
      <trkpt lat="45.11956" lon="4.9747">
        <ele>196</ele>
        <time>2009-03-04T13:03:33Z</time>
      </trkpt>
      <trkpt lat="45.11939" lon="4.97458">
        <ele>196</ele>
        <time>2009-03-04T13:03:36Z</time>
      </trkpt>
      <trkpt lat="45.11926" lon="4.97458">
        <ele>196</ele>
        <time>2009-03-04T13:03:38Z</time>
      </trkpt>
      <trkpt lat="45.11882" lon="4.97155">
        <ele>198</ele>
        <time>2009-03-04T13:04:13Z</time>
      </trkpt>
      <trkpt lat="45.11883" lon="4.97098">
        <ele>198</ele>
        <time>2009-03-04T13:04:20Z</time>
      </trkpt>
      <trkpt lat="45.1189" lon="4.97077">
        <ele>198</ele>
        <time>2009-03-04T13:04:22Z</time>
      </trkpt>
      <trkpt lat="45.11901" lon="4.9707">
        <ele>198</ele>
        <time>2009-03-04T13:04:24Z</time>
      </trkpt>
      <trkpt lat="45.119" lon="4.97057">
        <ele>198</ele>
        <time>2009-03-04T13:04:26Z</time>
      </trkpt>
      <trkpt lat="45.11885" lon="4.97049">
        <ele>198</ele>
        <time>2009-03-04T13:04:28Z</time>
      </trkpt>
      <trkpt lat="45.11764" lon="4.96882">
        <ele>197</ele>
        <time>2009-03-04T13:04:55Z</time>
      </trkpt>
      <trkpt lat="45.1175" lon="4.96856">
        <ele>195</ele>
        <time>2009-03-04T13:04:59Z</time>
      </trkpt>
      <trkpt lat="45.11755" lon="4.96836">
        <ele>195</ele>
        <time>2009-03-04T13:05:01Z</time>
      </trkpt>
      <trkpt lat="45.11747" lon="4.9682">
        <ele>195</ele>
        <time>2009-03-04T13:05:04Z</time>
      </trkpt>
      <trkpt lat="45.11737" lon="4.96817">
        <ele>195</ele>
        <time>2009-03-04T13:05:05Z</time>
      </trkpt>
      <trkpt lat="45.11728" lon="4.96823">
        <ele>195</ele>
        <time>2009-03-04T13:05:07Z</time>
      </trkpt>
      <trkpt lat="45.1171" lon="4.96795">
        <ele>195</ele>
        <time>2009-03-04T13:05:11Z</time>
      </trkpt>
      <trkpt lat="45.11655" lon="4.9669">
        <ele>194</ele>
        <time>2009-03-04T13:05:26Z</time>
      </trkpt>
      <trkpt lat="45.11583" lon="4.96501">
        <ele>195</ele>
        <time>2009-03-04T13:05:50Z</time>
      </trkpt>
      <trkpt lat="45.1156" lon="4.96456">
        <ele>198</ele>
        <time>2009-03-04T13:05:57Z</time>
      </trkpt>
      <trkpt lat="45.11475" lon="4.96328">
        <ele>200</ele>
        <time>2009-03-04T13:06:16Z</time>
      </trkpt>
      <trkpt lat="45.11445" lon="4.96276">
        <ele>201</ele>
        <time>2009-03-04T13:06:24Z</time>
      </trkpt>
      <trkpt lat="45.11408" lon="4.96193">
        <ele>206</ele>
        <time>2009-03-04T13:06:35Z</time>
      </trkpt>
      <trkpt lat="45.11265" lon="4.95931">
        <ele>198</ele>
        <time>2009-03-04T13:07:12Z</time>
      </trkpt>
      <trkpt lat="45.11149" lon="4.95754">
        <ele>198</ele>
        <time>2009-03-04T13:07:40Z</time>
      </trkpt>
      <trkpt lat="45.11107" lon="4.95671">
        <ele>202</ele>
        <time>2009-03-04T13:07:51Z</time>
      </trkpt>
      <trkpt lat="45.11095" lon="4.95655">
        <ele>202</ele>
        <time>2009-03-04T13:07:54Z</time>
      </trkpt>
      <trkpt lat="45.11011" lon="4.95589">
        <ele>201</ele>
        <time>2009-03-04T13:08:09Z</time>
      </trkpt>
      <trkpt lat="45.10984" lon="4.95557">
        <ele>201</ele>
        <time>2009-03-04T13:08:15Z</time>
      </trkpt>
      <trkpt lat="45.10971" lon="4.95528">
        <ele>204</ele>
        <time>2009-03-04T13:08:19Z</time>
      </trkpt>
      <trkpt lat="45.10964" lon="4.955">
        <ele>204</ele>
        <time>2009-03-04T13:08:22Z</time>
      </trkpt>
      <trkpt lat="45.10949" lon="4.95398">
        <ele>188</ele>
        <time>2009-03-04T13:08:34Z</time>
      </trkpt>
      <trkpt lat="45.10911" lon="4.95279">
        <ele>197</ele>
        <time>2009-03-04T13:08:49Z</time>
      </trkpt>
      <trkpt lat="45.1086" lon="4.9514">
        <ele>193</ele>
        <time>2009-03-04T13:09:06Z</time>
      </trkpt>
      <trkpt lat="45.1085" lon="4.95087">
        <ele>199</ele>
        <time>2009-03-04T13:09:13Z</time>
      </trkpt>
      <trkpt lat="45.10857" lon="4.94865">
        <ele>211</ele>
        <time>2009-03-04T13:09:38Z</time>
      </trkpt>
      <trkpt lat="45.10861" lon="4.9483">
        <ele>211</ele>
        <time>2009-03-04T13:09:42Z</time>
      </trkpt>
      <trkpt lat="45.10922" lon="4.94615">
        <ele>210</ele>
        <time>2009-03-04T13:10:08Z</time>
      </trkpt>
      <trkpt lat="45.1093" lon="4.94574">
        <ele>210</ele>
        <time>2009-03-04T13:10:13Z</time>
      </trkpt>
      <trkpt lat="45.10933" lon="4.94502">
        <ele>210</ele>
        <time>2009-03-04T13:10:21Z</time>
      </trkpt>
      <trkpt lat="45.10929" lon="4.94413">
        <ele>209</ele>
        <time>2009-03-04T13:10:31Z</time>
      </trkpt>
      <trkpt lat="45.10918" lon="4.94293">
        <ele>209</ele>
        <time>2009-03-04T13:10:45Z</time>
      </trkpt>
      <trkpt lat="45.10912" lon="4.94281">
        <ele>210</ele>
        <time>2009-03-04T13:10:46Z</time>
      </trkpt>
      <trkpt lat="45.10824" lon="4.94201">
        <ele>208</ele>
        <time>2009-03-04T13:11:03Z</time>
      </trkpt>
      <trkpt lat="45.1073" lon="4.94053">
        <ele>208</ele>
        <time>2009-03-04T13:11:26Z</time>
      </trkpt>
      <trkpt lat="45.10706" lon="4.93994">
        <ele>205</ele>
        <time>2009-03-04T13:11:33Z</time>
      </trkpt>
      <trkpt lat="45.1069" lon="4.93918">
        <ele>204</ele>
        <time>2009-03-04T13:11:42Z</time>
      </trkpt>
      <trkpt lat="45.10654" lon="4.93619">
        <ele>201</ele>
        <time>2009-03-04T13:12:17Z</time>
      </trkpt>
      <trkpt lat="45.10616" lon="4.9345">
        <ele>198</ele>
        <time>2009-03-04T13:12:37Z</time>
      </trkpt>
      <trkpt lat="45.10523" lon="4.92965">
        <ele>192</ele>
        <time>2009-03-04T13:13:33Z</time>
      </trkpt>
      <trkpt lat="45.10479" lon="4.92758">
        <ele>193</ele>
        <time>2009-03-04T13:13:58Z</time>
      </trkpt>
      <trkpt lat="45.10457" lon="4.92758">
        <ele>191</ele>
        <time>2009-03-04T13:14:01Z</time>
      </trkpt>
      <trkpt lat="45.10439" lon="4.92765">
        <ele>191</ele>
        <time>2009-03-04T13:14:04Z</time>
      </trkpt>
      <trkpt lat="45.10418" lon="4.92781">
        <ele>191</ele>
        <time>2009-03-04T13:14:08Z</time>
      </trkpt>
      <trkpt lat="45.10399" lon="4.92617">
        <ele>193</ele>
        <time>2009-03-04T13:14:27Z</time>
      </trkpt>
      <trkpt lat="45.10451" lon="4.92608">
        <ele>193</ele>
        <time>2009-03-04T13:14:35Z</time>
      </trkpt>
      <trkpt lat="45.1037" lon="4.92128">
        <ele>188</ele>
        <time>2009-03-04T13:15:31Z</time>
      </trkpt>
      <trkpt lat="45.10304" lon="4.91765">
        <ele>192</ele>
        <time>2009-03-04T13:16:13Z</time>
      </trkpt>
      <trkpt lat="45.10291" lon="4.91757">
        <ele>190</ele>
        <time>2009-03-04T13:16:16Z</time>
      </trkpt>
      <trkpt lat="45.10271" lon="4.91756">
        <ele>190</ele>
        <time>2009-03-04T13:16:19Z</time>
      </trkpt>
      <trkpt lat="45.10087" lon="4.91781">
        <ele>190</ele>
        <time>2009-03-04T13:16:49Z</time>
      </trkpt>
      <trkpt lat="45.09825" lon="4.91827">
        <ele>192</ele>
        <time>2009-03-04T13:17:31Z</time>
      </trkpt>
      <trkpt lat="45.09659" lon="4.91862">
        <ele>196</ele>
        <time>2009-03-04T13:17:58Z</time>
      </trkpt>
      <trkpt lat="45.09498" lon="4.91888">
        <ele>198</ele>
        <time>2009-03-04T13:18:24Z</time>
      </trkpt>
      <trkpt lat="45.09467" lon="4.91886">
        <ele>198</ele>
        <time>2009-03-04T13:18:29Z</time>
      </trkpt>
      <trkpt lat="45.09384" lon="4.91849">
        <ele>203</ele>
        <time>2009-03-04T13:18:42Z</time>
      </trkpt>
      <trkpt lat="45.09272" lon="4.91811">
        <ele>208</ele>
        <time>2009-03-04T13:19:01Z</time>
      </trkpt>
      <trkpt lat="45.09217" lon="4.91806">
        <ele>208</ele>
        <time>2009-03-04T13:19:10Z</time>
      </trkpt>
      <trkpt lat="45.09176" lon="4.91815">
        <ele>216</ele>
        <time>2009-03-04T13:19:16Z</time>
      </trkpt>
      <trkpt lat="45.0906" lon="4.91856">
        <ele>223</ele>
        <time>2009-03-04T13:19:36Z</time>
      </trkpt>
      <trkpt lat="45.08918" lon="4.91883">
        <ele>230</ele>
        <time>2009-03-04T13:19:58Z</time>
      </trkpt>
      <trkpt lat="45.08886" lon="4.91895">
        <ele>230</ele>
        <time>2009-03-04T13:20:04Z</time>
      </trkpt>
      <trkpt lat="45.08673" lon="4.91911">
        <ele>243</ele>
        <time>2009-03-04T13:20:38Z</time>
      </trkpt>
      <trkpt lat="45.08603" lon="4.91917">
        <ele>247</ele>
        <time>2009-03-04T13:20:49Z</time>
      </trkpt>
      <trkpt lat="45.08591" lon="4.91908">
        <ele>247</ele>
        <time>2009-03-04T13:20:51Z</time>
      </trkpt>
      <trkpt lat="45.08465" lon="4.91913">
        <ele>255</ele>
        <time>2009-03-04T13:21:12Z</time>
      </trkpt>
      <trkpt lat="45.08456" lon="4.91909">
        <ele>256</ele>
        <time>2009-03-04T13:21:13Z</time>
      </trkpt>
      <trkpt lat="45.0845" lon="4.91898">
        <ele>256</ele>
        <time>2009-03-04T13:21:15Z</time>
      </trkpt>
      <trkpt lat="45.0838" lon="4.91929">
        <ele>256</ele>
        <time>2009-03-04T13:21:26Z</time>
      </trkpt>
      <trkpt lat="45.08325" lon="4.91942">
        <ele>254</ele>
        <time>2009-03-04T13:21:35Z</time>
      </trkpt>
      <trkpt lat="45.08299" lon="4.91937">
        <ele>254</ele>
        <time>2009-03-04T13:21:39Z</time>
      </trkpt>
      <trkpt lat="45.08154" lon="4.91883">
        <ele>250</ele>
        <time>2009-03-04T13:22:03Z</time>
      </trkpt>
      <trkpt lat="45.08145" lon="4.9185">
        <ele>247</ele>
        <time>2009-03-04T13:22:07Z</time>
      </trkpt>
      <trkpt lat="45.08154" lon="4.91765">
        <ele>245</ele>
        <time>2009-03-04T13:22:17Z</time>
      </trkpt>
      <trkpt lat="45.0818" lon="4.91623">
        <ele>235</ele>
        <time>2009-03-04T13:22:34Z</time>
      </trkpt>
      <trkpt lat="45.0818" lon="4.91594">
        <ele>235</ele>
        <time>2009-03-04T13:22:37Z</time>
      </trkpt>
      <trkpt lat="45.08174" lon="4.91573">
        <ele>235</ele>
        <time>2009-03-04T13:22:40Z</time>
      </trkpt>
      <trkpt lat="45.08157" lon="4.91546">
        <ele>235</ele>
        <time>2009-03-04T13:22:44Z</time>
      </trkpt>
      <trkpt lat="45.0806" lon="4.91451">
        <ele>232</ele>
        <time>2009-03-04T13:23:03Z</time>
      </trkpt>
      <trkpt lat="45.07979" lon="4.91351">
        <ele>225</ele>
        <time>2009-03-04T13:23:20Z</time>
      </trkpt>
      <trkpt lat="45.0785" lon="4.91156">
        <ele>225</ele>
        <time>2009-03-04T13:23:50Z</time>
      </trkpt>
      <trkpt lat="45.07798" lon="4.91103">
        <ele>219</ele>
        <time>2009-03-04T13:24:00Z</time>
      </trkpt>
      <trkpt lat="45.07697" lon="4.90957">
        <ele>216</ele>
        <time>2009-03-04T13:24:23Z</time>
      </trkpt>
      <trkpt lat="45.07673" lon="4.90914">
        <ele>216</ele>
        <time>2009-03-04T13:24:30Z</time>
      </trkpt>
      <trkpt lat="45.0761" lon="4.90739">
        <ele>216</ele>
        <time>2009-03-04T13:24:52Z</time>
      </trkpt>
      <trkpt lat="45.07612" lon="4.90609">
        <ele>215</ele>
        <time>2009-03-04T13:25:07Z</time>
      </trkpt>
      <trkpt lat="45.07619" lon="4.9056">
        <ele>215</ele>
        <time>2009-03-04T13:25:12Z</time>
      </trkpt>
      <trkpt lat="45.07638" lon="4.90505">
        <ele>202</ele>
        <time>2009-03-04T13:25:19Z</time>
      </trkpt>
      <trkpt lat="45.07694" lon="4.90371">
        <ele>205</ele>
        <time>2009-03-04T13:25:37Z</time>
      </trkpt>
      <trkpt lat="45.07704" lon="4.90328">
        <ele>205</ele>
        <time>2009-03-04T13:25:42Z</time>
      </trkpt>
      <trkpt lat="45.07714" lon="4.90102">
        <ele>186</ele>
        <time>2009-03-04T13:26:07Z</time>
      </trkpt>
      <trkpt lat="45.07731" lon="4.90011">
        <ele>185</ele>
        <time>2009-03-04T13:26:18Z</time>
      </trkpt>
      <trkpt lat="45.07748" lon="4.89962">
        <ele>185</ele>
        <time>2009-03-04T13:26:24Z</time>
      </trkpt>
      <trkpt lat="45.07861" lon="4.89779">
        <ele>184</ele>
        <time>2009-03-04T13:26:52Z</time>
      </trkpt>
      <trkpt lat="45.07869" lon="4.89756">
        <ele>184</ele>
        <time>2009-03-04T13:26:55Z</time>
      </trkpt>
      <trkpt lat="45.07876" lon="4.89449">
        <ele>175</ele>
        <time>2009-03-04T13:27:29Z</time>
      </trkpt>
      <trkpt lat="45.07869" lon="4.89395">
        <ele>197</ele>
        <time>2009-03-04T13:27:36Z</time>
      </trkpt>
      <trkpt lat="45.07857" lon="4.89348">
        <ele>189</ele>
        <time>2009-03-04T13:27:41Z</time>
      </trkpt>
      <trkpt lat="45.07873" lon="4.89347">
        <ele>189</ele>
        <time>2009-03-04T13:27:44Z</time>
      </trkpt>
      <trkpt lat="45.08021" lon="4.89356">
        <ele>176</ele>
        <time>2009-03-04T13:28:07Z</time>
      </trkpt>
      <trkpt lat="45.08064" lon="4.89345">
        <ele>182</ele>
        <time>2009-03-04T13:28:14Z</time>
      </trkpt>
      <trkpt lat="45.08135" lon="4.89397">
        <ele>188</ele>
        <time>2009-03-04T13:28:27Z</time>
      </trkpt>
      <trkpt lat="45.08149" lon="4.89397">
        <ele>188</ele>
        <time>2009-03-04T13:28:30Z</time>
      </trkpt>
      <trkpt lat="45.08154" lon="4.89378">
        <ele>188</ele>
        <time>2009-03-04T13:28:32Z</time>
      </trkpt>
      <trkpt lat="45.08147" lon="4.8933">
        <ele>192</ele>
        <time>2009-03-04T13:28:37Z</time>
      </trkpt>
      <trkpt lat="45.0816" lon="4.89289">
        <ele>193</ele>
        <time>2009-03-04T13:28:42Z</time>
      </trkpt>
      <trkpt lat="45.08178" lon="4.89269">
        <ele>193</ele>
        <time>2009-03-04T13:28:46Z</time>
      </trkpt>
      <trkpt lat="45.08201" lon="4.89255">
        <ele>193</ele>
        <time>2009-03-04T13:28:50Z</time>
      </trkpt>
      <trkpt lat="45.08242" lon="4.89242">
        <ele>203</ele>
        <time>2009-03-04T13:28:57Z</time>
      </trkpt>
      <trkpt lat="45.08271" lon="4.89242">
        <ele>203</ele>
        <time>2009-03-04T13:29:01Z</time>
      </trkpt>
      <trkpt lat="45.08297" lon="4.8925">
        <ele>209</ele>
        <time>2009-03-04T13:29:06Z</time>
      </trkpt>
      <trkpt lat="45.08367" lon="4.89252">
        <ele>209</ele>
        <time>2009-03-04T13:29:17Z</time>
      </trkpt>
      <trkpt lat="45.08413" lon="4.89197">
        <ele>214</ele>
        <time>2009-03-04T13:29:27Z</time>
      </trkpt>
      <trkpt lat="45.08436" lon="4.89177">
        <ele>214</ele>
        <time>2009-03-04T13:29:31Z</time>
      </trkpt>
      <trkpt lat="45.08496" lon="4.89138">
        <ele>213</ele>
        <time>2009-03-04T13:29:41Z</time>
      </trkpt>
      <trkpt lat="45.08505" lon="4.89137">
        <ele>213</ele>
        <time>2009-03-04T13:29:43Z</time>
      </trkpt>
      <trkpt lat="45.08527" lon="4.89153">
        <ele>213</ele>
        <time>2009-03-04T13:29:47Z</time>
      </trkpt>
      <trkpt lat="45.08541" lon="4.89156">
        <ele>213</ele>
        <time>2009-03-04T13:29:49Z</time>
      </trkpt>
      <trkpt lat="45.08599" lon="4.89129">
        <ele>214</ele>
        <time>2009-03-04T13:29:59Z</time>
      </trkpt>
      <trkpt lat="45.08645" lon="4.89122">
        <ele>213</ele>
        <time>2009-03-04T13:30:06Z</time>
      </trkpt>
      <trkpt lat="45.08953" lon="4.89146">
        <ele>229</ele>
        <time>2009-03-04T13:30:56Z</time>
      </trkpt>
      <trkpt lat="45.08958" lon="4.89142">
        <ele>229</ele>
        <time>2009-03-04T13:30:57Z</time>
      </trkpt>
      <trkpt lat="45.08984" lon="4.89068">
        <ele>231</ele>
        <time>2009-03-04T13:31:06Z</time>
      </trkpt>
      <trkpt lat="45.09006" lon="4.89042">
        <ele>231</ele>
        <time>2009-03-04T13:31:11Z</time>
      </trkpt>
      <trkpt lat="45.0903" lon="4.89024">
        <ele>229</ele>
        <time>2009-03-04T13:31:15Z</time>
      </trkpt>
      <trkpt lat="45.09154" lon="4.89019">
        <ele>230</ele>
        <time>2009-03-04T13:31:35Z</time>
      </trkpt>
      <trkpt lat="45.09185" lon="4.89013">
        <ele>230</ele>
        <time>2009-03-04T13:31:40Z</time>
      </trkpt>
      <trkpt lat="45.09252" lon="4.88955">
        <ele>223</ele>
        <time>2009-03-04T13:31:52Z</time>
      </trkpt>
      <trkpt lat="45.09274" lon="4.88944">
        <ele>223</ele>
        <time>2009-03-04T13:31:56Z</time>
      </trkpt>
      <trkpt lat="45.09354" lon="4.88946">
        <ele>225</ele>
        <time>2009-03-04T13:32:09Z</time>
      </trkpt>
      <trkpt lat="45.09398" lon="4.88927">
        <ele>230</ele>
        <time>2009-03-04T13:32:16Z</time>
      </trkpt>
      <trkpt lat="45.09425" lon="4.88909">
        <ele>230</ele>
        <time>2009-03-04T13:32:21Z</time>
      </trkpt>
      <trkpt lat="45.09453" lon="4.88904">
        <ele>230</ele>
        <time>2009-03-04T13:32:26Z</time>
      </trkpt>
      <trkpt lat="45.09466" lon="4.88912">
        <ele>229</ele>
        <time>2009-03-04T13:32:28Z</time>
      </trkpt>
      <trkpt lat="45.09483" lon="4.88942">
        <ele>229</ele>
        <time>2009-03-04T13:32:32Z</time>
      </trkpt>
      <trkpt lat="45.095" lon="4.88947">
        <ele>229</ele>
        <time>2009-03-04T13:32:35Z</time>
      </trkpt>
      <trkpt lat="45.09516" lon="4.88942">
        <ele>229</ele>
        <time>2009-03-04T13:32:38Z</time>
      </trkpt>
      <trkpt lat="45.09558" lon="4.88903">
        <ele>233</ele>
        <time>2009-03-04T13:32:46Z</time>
      </trkpt>
      <trkpt lat="45.09707" lon="4.88899">
        <ele>229</ele>
        <time>2009-03-04T13:33:10Z</time>
      </trkpt>
      <trkpt lat="45.09716" lon="4.88892">
        <ele>227</ele>
        <time>2009-03-04T13:33:11Z</time>
      </trkpt>
      <trkpt lat="45.09722" lon="4.88859">
        <ele>224</ele>
        <time>2009-03-04T13:33:15Z</time>
      </trkpt>
      <trkpt lat="45.09719" lon="4.88804">
        <ele>224</ele>
        <time>2009-03-04T13:33:21Z</time>
      </trkpt>
      <trkpt lat="45.09708" lon="4.88784">
        <ele>215</ele>
        <time>2009-03-04T13:33:24Z</time>
      </trkpt>
      <trkpt lat="45.09703" lon="4.88753">
        <ele>215</ele>
        <time>2009-03-04T13:33:28Z</time>
      </trkpt>
      <trkpt lat="45.09704" lon="4.88712">
        <ele>215</ele>
        <time>2009-03-04T13:33:32Z</time>
      </trkpt>
      <trkpt lat="45.09708" lon="4.88674">
        <ele>215</ele>
        <time>2009-03-04T13:33:37Z</time>
      </trkpt>
      <trkpt lat="45.09715" lon="4.88655">
        <ele>217</ele>
        <time>2009-03-04T13:33:39Z</time>
      </trkpt>
      <trkpt lat="45.09728" lon="4.88639">
        <ele>217</ele>
        <time>2009-03-04T13:33:42Z</time>
      </trkpt>
      <trkpt lat="45.09782" lon="4.88593">
        <ele>208</ele>
        <time>2009-03-04T13:33:52Z</time>
      </trkpt>
      <trkpt lat="45.09853" lon="4.88541">
        <ele>200</ele>
        <time>2009-03-04T13:34:05Z</time>
      </trkpt>
      <trkpt lat="45.09931" lon="4.88406">
        <ele>194</ele>
        <time>2009-03-04T13:34:24Z</time>
      </trkpt>
      <trkpt lat="45.09934" lon="4.88388">
        <ele>194</ele>
        <time>2009-03-04T13:34:27Z</time>
      </trkpt>
      <trkpt lat="45.09928" lon="4.8837">
        <ele>187</ele>
        <time>2009-03-04T13:34:29Z</time>
      </trkpt>
      <trkpt lat="45.09883" lon="4.88342">
        <ele>187</ele>
        <time>2009-03-04T13:34:37Z</time>
      </trkpt>
      <trkpt lat="45.09879" lon="4.88316">
        <ele>187</ele>
        <time>2009-03-04T13:34:40Z</time>
      </trkpt>
      <trkpt lat="45.09879" lon="4.88254">
        <ele>181</ele>
        <time>2009-03-04T13:34:47Z</time>
      </trkpt>
      <trkpt lat="45.09932" lon="4.88245">
        <ele>181</ele>
        <time>2009-03-04T13:34:55Z</time>
      </trkpt>
      <trkpt lat="45.09939" lon="4.88232">
        <ele>181</ele>
        <time>2009-03-04T13:34:57Z</time>
      </trkpt>
      <trkpt lat="45.09944" lon="4.88185">
        <ele>175</ele>
        <time>2009-03-04T13:35:02Z</time>
      </trkpt>
      <trkpt lat="45.10253" lon="4.88356">
        <ele>177</ele>
        <time>2009-03-04T13:35:56Z</time>
      </trkpt>
      <trkpt lat="45.10104" lon="4.86922">
        <ele>238</ele>
        <time>2009-03-04T13:38:39Z</time>
      </trkpt>
      <trkpt lat="45.10261" lon="4.86914">
        <ele>235</ele>
        <time>2009-03-04T13:39:05Z</time>
      </trkpt>
      <trkpt lat="45.10412" lon="4.86882">
        <ele>236</ele>
        <time>2009-03-04T13:39:29Z</time>
      </trkpt>
      <trkpt lat="45.10556" lon="4.86826">
        <ele>235</ele>
        <time>2009-03-04T13:39:53Z</time>
      </trkpt>
      <trkpt lat="45.10673" lon="4.86763">
        <ele>248</ele>
        <time>2009-03-04T13:40:13Z</time>
      </trkpt>
      <trkpt lat="45.10836" lon="4.86699">
        <ele>246</ele>
        <time>2009-03-04T13:40:40Z</time>
      </trkpt>
      <trkpt lat="45.10899" lon="4.86669">
        <ele>247</ele>
        <time>2009-03-04T13:40:51Z</time>
      </trkpt>
      <trkpt lat="45.10998" lon="4.86669">
        <ele>250</ele>
        <time>2009-03-04T13:41:07Z</time>
      </trkpt>
      <trkpt lat="45.11091" lon="4.86654">
        <ele>250</ele>
        <time>2009-03-04T13:41:22Z</time>
      </trkpt>
      <trkpt lat="45.1117" lon="4.8662">
        <ele>251</ele>
        <time>2009-03-04T13:41:35Z</time>
      </trkpt>
      <trkpt lat="45.11242" lon="4.8656">
        <ele>247</ele>
        <time>2009-03-04T13:41:48Z</time>
      </trkpt>
      <trkpt lat="45.11284" lon="4.86548">
        <ele>247</ele>
        <time>2009-03-04T13:41:55Z</time>
      </trkpt>
      <trkpt lat="45.11294" lon="4.8654">
        <ele>253</ele>
        <time>2009-03-04T13:41:57Z</time>
      </trkpt>
      <trkpt lat="45.11333" lon="4.86482">
        <ele>253</ele>
        <time>2009-03-04T13:42:06Z</time>
      </trkpt>
      <trkpt lat="45.11355" lon="4.86456">
        <ele>262</ele>
        <time>2009-03-04T13:42:10Z</time>
      </trkpt>
      <trkpt lat="45.1137" lon="4.86446">
        <ele>262</ele>
        <time>2009-03-04T13:42:13Z</time>
      </trkpt>
      <trkpt lat="45.11388" lon="4.86449">
        <ele>265</ele>
        <time>2009-03-04T13:42:16Z</time>
      </trkpt>
      <trkpt lat="45.11394" lon="4.86468">
        <ele>261</ele>
        <time>2009-03-04T13:42:18Z</time>
      </trkpt>
      <trkpt lat="45.11393" lon="4.86478">
        <ele>261</ele>
        <time>2009-03-04T13:42:20Z</time>
      </trkpt>
      <trkpt lat="45.11367" lon="4.8653">
        <ele>253</ele>
        <time>2009-03-04T13:42:27Z</time>
      </trkpt>
      <trkpt lat="45.11365" lon="4.8654">
        <ele>253</ele>
        <time>2009-03-04T13:42:28Z</time>
      </trkpt>
      <trkpt lat="45.11371" lon="4.86554">
        <ele>254</ele>
        <time>2009-03-04T13:42:30Z</time>
      </trkpt>
      <trkpt lat="45.11382" lon="4.86555">
        <ele>265</ele>
        <time>2009-03-04T13:42:31Z</time>
      </trkpt>
      <trkpt lat="45.11435" lon="4.86502">
        <ele>261</ele>
        <time>2009-03-04T13:42:42Z</time>
      </trkpt>
      <trkpt lat="45.11462" lon="4.86495">
        <ele>269</ele>
        <time>2009-03-04T13:42:46Z</time>
      </trkpt>
      <trkpt lat="45.115" lon="4.86493">
        <ele>269</ele>
        <time>2009-03-04T13:42:52Z</time>
      </trkpt>
      <trkpt lat="45.11505" lon="4.86496">
        <ele>269</ele>
        <time>2009-03-04T13:42:53Z</time>
      </trkpt>
      <trkpt lat="45.11508" lon="4.86509">
        <ele>269</ele>
        <time>2009-03-04T13:42:55Z</time>
      </trkpt>
      <trkpt lat="45.11487" lon="4.86562">
        <ele>274</ele>
        <time>2009-03-04T13:43:02Z</time>
      </trkpt>
      <trkpt lat="45.11493" lon="4.8658">
        <ele>274</ele>
        <time>2009-03-04T13:43:04Z</time>
      </trkpt>
      <trkpt lat="45.11503" lon="4.8658">
        <ele>274</ele>
        <time>2009-03-04T13:43:05Z</time>
      </trkpt>
      <trkpt lat="45.11526" lon="4.86546">
        <ele>274</ele>
        <time>2009-03-04T13:43:11Z</time>
      </trkpt>
      <trkpt lat="45.11533" lon="4.86545">
        <ele>274</ele>
        <time>2009-03-04T13:43:12Z</time>
      </trkpt>
      <trkpt lat="45.11546" lon="4.86582">
        <ele>280</ele>
        <time>2009-03-04T13:43:17Z</time>
      </trkpt>
      <trkpt lat="45.11565" lon="4.86597">
        <ele>280</ele>
        <time>2009-03-04T13:43:20Z</time>
      </trkpt>
      <trkpt lat="45.11773" lon="4.867">
        <ele>294</ele>
        <time>2009-03-04T13:43:55Z</time>
      </trkpt>
      <trkpt lat="45.11857" lon="4.86693">
        <ele>298</ele>
        <time>2009-03-04T13:44:09Z</time>
      </trkpt>
      <trkpt lat="45.12151" lon="4.86731">
        <ele>309</ele>
        <time>2009-03-04T13:44:56Z</time>
      </trkpt>
      <trkpt lat="45.12246" lon="4.86736">
        <ele>308</ele>
        <time>2009-03-04T13:45:11Z</time>
      </trkpt>
      <trkpt lat="45.12467" lon="4.86719">
        <ele>312</ele>
        <time>2009-03-04T13:45:47Z</time>
      </trkpt>
      <trkpt lat="45.12607" lon="4.86683">
        <ele>312</ele>
        <time>2009-03-04T13:46:10Z</time>
      </trkpt>
      <trkpt lat="45.12606" lon="4.86692">
        <ele>312</ele>
        <time>2009-03-04T13:46:11Z</time>
      </trkpt>
      <trkpt lat="45.12607" lon="4.86683">
        <ele>312</ele>
        <time>2009-03-04T13:46:12Z</time>
      </trkpt>
      <trkpt lat="45.12919" lon="4.86606">
        <ele>316</ele>
        <time>2009-03-04T13:47:02Z</time>
      </trkpt>
      <trkpt lat="45.12956" lon="4.86587">
        <ele>316</ele>
        <time>2009-03-04T13:47:09Z</time>
      </trkpt>
      <trkpt lat="45.13034" lon="4.86515">
        <ele>315</ele>
        <time>2009-03-04T13:47:24Z</time>
      </trkpt>
      <trkpt lat="45.13047" lon="4.86514">
        <ele>316</ele>
        <time>2009-03-04T13:47:26Z</time>
      </trkpt>
      <trkpt lat="45.13215" lon="4.86568">
        <ele>321</ele>
        <time>2009-03-04T13:47:53Z</time>
      </trkpt>
      <trkpt lat="45.13229" lon="4.86578">
        <ele>321</ele>
        <time>2009-03-04T13:47:56Z</time>
      </trkpt>
      <trkpt lat="45.13268" lon="4.86628">
        <ele>317</ele>
        <time>2009-03-04T13:48:04Z</time>
      </trkpt>
      <trkpt lat="45.13302" lon="4.86646">
        <ele>324</ele>
        <time>2009-03-04T13:48:10Z</time>
      </trkpt>
      <trkpt lat="45.13403" lon="4.86684">
        <ele>327</ele>
        <time>2009-03-04T13:48:27Z</time>
      </trkpt>
      <trkpt lat="45.13468" lon="4.86694">
        <ele>328</ele>
        <time>2009-03-04T13:48:37Z</time>
      </trkpt>
      <trkpt lat="45.1351" lon="4.86711">
        <ele>318</ele>
        <time>2009-03-04T13:48:44Z</time>
      </trkpt>
      <trkpt lat="45.13543" lon="4.86718">
        <ele>317</ele>
        <time>2009-03-04T13:48:49Z</time>
      </trkpt>
      <trkpt lat="45.13572" lon="4.86713">
        <ele>317</ele>
        <time>2009-03-04T13:48:54Z</time>
      </trkpt>
      <trkpt lat="45.13622" lon="4.86683">
        <ele>323</ele>
        <time>2009-03-04T13:49:03Z</time>
      </trkpt>
      <trkpt lat="45.13667" lon="4.86679">
        <ele>317</ele>
        <time>2009-03-04T13:49:10Z</time>
      </trkpt>
      <trkpt lat="45.13698" lon="4.86686">
        <ele>317</ele>
        <time>2009-03-04T13:49:15Z</time>
      </trkpt>
      <trkpt lat="45.13707" lon="4.86682">
        <ele>317</ele>
        <time>2009-03-04T13:49:17Z</time>
      </trkpt>
      <trkpt lat="45.13741" lon="4.86683">
        <ele>315</ele>
        <time>2009-03-04T13:49:22Z</time>
      </trkpt>
      <trkpt lat="45.13819" lon="4.86738">
        <ele>321</ele>
        <time>2009-03-04T13:49:36Z</time>
      </trkpt>
      <trkpt lat="45.13847" lon="4.86752">
        <ele>321</ele>
        <time>2009-03-04T13:49:41Z</time>
      </trkpt>
      <trkpt lat="45.13938" lon="4.86762">
        <ele>317</ele>
        <time>2009-03-04T13:49:55Z</time>
      </trkpt>
      <trkpt lat="45.13985" lon="4.86775">
        <ele>307</ele>
        <time>2009-03-04T13:50:03Z</time>
      </trkpt>
      <trkpt lat="45.14023" lon="4.8677">
        <ele>307</ele>
        <time>2009-03-04T13:50:09Z</time>
      </trkpt>
      <trkpt lat="45.14189" lon="4.86715">
        <ele>298</ele>
        <time>2009-03-04T13:50:36Z</time>
      </trkpt>
      <trkpt lat="45.14254" lon="4.86726">
        <ele>295</ele>
        <time>2009-03-04T13:50:47Z</time>
      </trkpt>
      <trkpt lat="45.14345" lon="4.86732">
        <ele>289</ele>
        <time>2009-03-04T13:51:02Z</time>
      </trkpt>
      <trkpt lat="45.14355" lon="4.86729">
        <ele>289</ele>
        <time>2009-03-04T13:51:03Z</time>
      </trkpt>
      <trkpt lat="45.14358" lon="4.86698">
        <ele>287</ele>
        <time>2009-03-04T13:51:07Z</time>
      </trkpt>
      <trkpt lat="45.14352" lon="4.86661">
        <ele>287</ele>
        <time>2009-03-04T13:51:11Z</time>
      </trkpt>
      <trkpt lat="45.1434" lon="4.86636">
        <ele>287</ele>
        <time>2009-03-04T13:51:14Z</time>
      </trkpt>
      <trkpt lat="45.14324" lon="4.86608">
        <ele>284</ele>
        <time>2009-03-04T13:51:18Z</time>
      </trkpt>
      <trkpt lat="45.14321" lon="4.86593">
        <ele>284</ele>
        <time>2009-03-04T13:51:20Z</time>
      </trkpt>
      <trkpt lat="45.14329" lon="4.86551">
        <ele>284</ele>
        <time>2009-03-04T13:51:25Z</time>
      </trkpt>
      <trkpt lat="45.1434" lon="4.86393">
        <ele>281</ele>
        <time>2009-03-04T13:51:43Z</time>
      </trkpt>
      <trkpt lat="45.14369" lon="4.86269">
        <ele>278</ele>
        <time>2009-03-04T13:51:58Z</time>
      </trkpt>
      <trkpt lat="45.1439" lon="4.86194">
        <ele>278</ele>
        <time>2009-03-04T13:52:07Z</time>
      </trkpt>
      <trkpt lat="45.14399" lon="4.86174">
        <ele>278</ele>
        <time>2009-03-04T13:52:10Z</time>
      </trkpt>
      <trkpt lat="45.14593" lon="4.85985">
        <ele>265</ele>
        <time>2009-03-04T13:52:47Z</time>
      </trkpt>
      <trkpt lat="45.14626" lon="4.85979">
        <ele>261</ele>
        <time>2009-03-04T13:52:53Z</time>
      </trkpt>
      <trkpt lat="45.1465" lon="4.85988">
        <ele>261</ele>
        <time>2009-03-04T13:52:57Z</time>
      </trkpt>
      <trkpt lat="45.14667" lon="4.86001">
        <ele>261</ele>
        <time>2009-03-04T13:53:00Z</time>
      </trkpt>
      <trkpt lat="45.14682" lon="4.86025">
        <ele>261</ele>
        <time>2009-03-04T13:53:03Z</time>
      </trkpt>
      <trkpt lat="45.14731" lon="4.86148">
        <ele>267</ele>
        <time>2009-03-04T13:53:19Z</time>
      </trkpt>
      <trkpt lat="45.1475" lon="4.86174">
        <ele>267</ele>
        <time>2009-03-04T13:53:24Z</time>
      </trkpt>
      <trkpt lat="45.1478" lon="4.86199">
        <ele>267</ele>
        <time>2009-03-04T13:53:29Z</time>
      </trkpt>
      <trkpt lat="45.14837" lon="4.86223">
        <ele>259</ele>
        <time>2009-03-04T13:53:39Z</time>
      </trkpt>
      <trkpt lat="45.1491" lon="4.86224">
        <ele>252</ele>
        <time>2009-03-04T13:53:50Z</time>
      </trkpt>
      <trkpt lat="45.14983" lon="4.86243">
        <ele>244</ele>
        <time>2009-03-04T13:54:02Z</time>
      </trkpt>
      <trkpt lat="45.15113" lon="4.86241">
        <ele>236</ele>
        <time>2009-03-04T13:54:23Z</time>
      </trkpt>
      <trkpt lat="45.15173" lon="4.8626">
        <ele>226</ele>
        <time>2009-03-04T13:54:33Z</time>
      </trkpt>
      <trkpt lat="45.1524" lon="4.86265">
        <ele>217</ele>
        <time>2009-03-04T13:54:44Z</time>
      </trkpt>
      <trkpt lat="45.15359" lon="4.86245">
        <ele>209</ele>
        <time>2009-03-04T13:55:03Z</time>
      </trkpt>
      <trkpt lat="45.15376" lon="4.86237">
        <ele>202</ele>
        <time>2009-03-04T13:55:06Z</time>
      </trkpt>
      <trkpt lat="45.15418" lon="4.8618">
        <ele>203</ele>
        <time>2009-03-04T13:55:15Z</time>
      </trkpt>
      <trkpt lat="45.15387" lon="4.86079">
        <ele>202</ele>
        <time>2009-03-04T13:55:27Z</time>
      </trkpt>
      <trkpt lat="45.15344" lon="4.8599">
        <ele>204</ele>
        <time>2009-03-04T13:55:40Z</time>
      </trkpt>
      <trkpt lat="45.15262" lon="4.85841">
        <ele>207</ele>
        <time>2009-03-04T13:56:01Z</time>
      </trkpt>
      <trkpt lat="45.15234" lon="4.85797">
        <ele>207</ele>
        <time>2009-03-04T13:56:08Z</time>
      </trkpt>
      <trkpt lat="45.15186" lon="4.85764">
        <ele>202</ele>
        <time>2009-03-04T13:56:16Z</time>
      </trkpt>
      <trkpt lat="45.15166" lon="4.85741">
        <ele>202</ele>
        <time>2009-03-04T13:56:20Z</time>
      </trkpt>
      <trkpt lat="45.15118" lon="4.8566">
        <ele>213</ele>
        <time>2009-03-04T13:56:32Z</time>
      </trkpt>
      <trkpt lat="45.15098" lon="4.856">
        <ele>209</ele>
        <time>2009-03-04T13:56:40Z</time>
      </trkpt>
      <trkpt lat="45.15098" lon="4.85564">
        <ele>209</ele>
        <time>2009-03-04T13:56:44Z</time>
      </trkpt>
      <trkpt lat="45.15118" lon="4.8549">
        <ele>201</ele>
        <time>2009-03-04T13:56:53Z</time>
      </trkpt>
      <trkpt lat="45.15127" lon="4.85477">
        <ele>202</ele>
        <time>2009-03-04T13:56:55Z</time>
      </trkpt>
      <trkpt lat="45.15169" lon="4.85461">
        <ele>202</ele>
        <time>2009-03-04T13:57:02Z</time>
      </trkpt>
      <trkpt lat="45.15181" lon="4.85449">
        <ele>195</ele>
        <time>2009-03-04T13:57:04Z</time>
      </trkpt>
      <trkpt lat="45.15187" lon="4.85432">
        <ele>195</ele>
        <time>2009-03-04T13:57:06Z</time>
      </trkpt>
      <trkpt lat="45.15193" lon="4.85354">
        <ele>195</ele>
        <time>2009-03-04T13:57:15Z</time>
      </trkpt>
      <trkpt lat="45.15197" lon="4.85341">
        <ele>195</ele>
        <time>2009-03-04T13:57:17Z</time>
      </trkpt>
      <trkpt lat="45.15215" lon="4.85321">
        <ele>198</ele>
        <time>2009-03-04T13:57:20Z</time>
      </trkpt>
      <trkpt lat="45.15259" lon="4.85306">
        <ele>198</ele>
        <time>2009-03-04T13:57:28Z</time>
      </trkpt>
      <trkpt lat="45.15306" lon="4.85261">
        <ele>195</ele>
        <time>2009-03-04T13:57:37Z</time>
      </trkpt>
      <trkpt lat="45.1542" lon="4.85225">
        <ele>194</ele>
        <time>2009-03-04T13:57:55Z</time>
      </trkpt>
      <trkpt lat="45.15441" lon="4.85214">
        <ele>194</ele>
        <time>2009-03-04T13:57:59Z</time>
      </trkpt>
      <trkpt lat="45.15493" lon="4.85145">
        <ele>195</ele>
        <time>2009-03-04T13:58:10Z</time>
      </trkpt>
      <trkpt lat="45.15569" lon="4.85098">
        <ele>191</ele>
        <time>2009-03-04T13:58:24Z</time>
      </trkpt>
      <trkpt lat="45.15599" lon="4.85065">
        <ele>191</ele>
        <time>2009-03-04T13:58:30Z</time>
      </trkpt>
      <trkpt lat="45.15615" lon="4.85029">
        <ele>203</ele>
        <time>2009-03-04T13:58:35Z</time>
      </trkpt>
      <trkpt lat="45.15665" lon="4.84826">
        <ele>187</ele>
        <time>2009-03-04T13:58:59Z</time>
      </trkpt>
      <trkpt lat="45.15663" lon="4.84791">
        <ele>182</ele>
        <time>2009-03-04T13:59:03Z</time>
      </trkpt>
      <trkpt lat="45.15632" lon="4.84697">
        <ele>177</ele>
        <time>2009-03-04T13:59:14Z</time>
      </trkpt>
      <trkpt lat="45.15637" lon="4.84664">
        <ele>177</ele>
        <time>2009-03-04T13:59:18Z</time>
      </trkpt>
      <trkpt lat="45.1567" lon="4.84627">
        <ele>177</ele>
        <time>2009-03-04T13:59:25Z</time>
      </trkpt>
      <trkpt lat="45.15713" lon="4.84601">
        <ele>178</ele>
        <time>2009-03-04T13:59:33Z</time>
      </trkpt>
      <trkpt lat="45.15721" lon="4.84591">
        <ele>178</ele>
        <time>2009-03-04T13:59:34Z</time>
      </trkpt>
      <trkpt lat="45.15748" lon="4.84522">
        <ele>185</ele>
        <time>2009-03-04T13:59:43Z</time>
      </trkpt>
      <trkpt lat="45.15764" lon="4.84498">
        <ele>185</ele>
        <time>2009-03-04T13:59:47Z</time>
      </trkpt>
      <trkpt lat="45.158" lon="4.84483">
        <ele>177</ele>
        <time>2009-03-04T13:59:53Z</time>
      </trkpt>
      <trkpt lat="45.15812" lon="4.84471">
        <ele>177</ele>
        <time>2009-03-04T13:59:55Z</time>
      </trkpt>
      <trkpt lat="45.15823" lon="4.8444">
        <ele>172</ele>
        <time>2009-03-04T13:59:59Z</time>
      </trkpt>
      <trkpt lat="45.15826" lon="4.8441">
        <ele>172</ele>
        <time>2009-03-04T14:00:03Z</time>
      </trkpt>
      <trkpt lat="45.15837" lon="4.84351">
        <ele>168</ele>
        <time>2009-03-04T14:00:09Z</time>
      </trkpt>
      <trkpt lat="45.15872" lon="4.8429">
        <ele>166</ele>
        <time>2009-03-04T14:00:18Z</time>
      </trkpt>
      <trkpt lat="45.15895" lon="4.84235">
        <ele>169</ele>
        <time>2009-03-04T14:00:26Z</time>
      </trkpt>
      <trkpt lat="45.15935" lon="4.84163">
        <ele>154</ele>
        <time>2009-03-04T14:00:36Z</time>
      </trkpt>
      <trkpt lat="45.15954" lon="4.84116">
        <ele>146</ele>
        <time>2009-03-04T14:00:42Z</time>
      </trkpt>
      <trkpt lat="45.15965" lon="4.84075">
        <ele>165</ele>
        <time>2009-03-04T14:00:47Z</time>
      </trkpt>
      <trkpt lat="45.15968" lon="4.84045">
        <ele>165</ele>
        <time>2009-03-04T14:00:50Z</time>
      </trkpt>
      <trkpt lat="45.1597" lon="4.83937">
        <ele>144</ele>
        <time>2009-03-04T14:01:03Z</time>
      </trkpt>
      <trkpt lat="45.15972" lon="4.83929">
        <ele>144</ele>
        <time>2009-03-04T14:01:04Z</time>
      </trkpt>
      <trkpt lat="45.16005" lon="4.83883">
        <ele>144</ele>
        <time>2009-03-04T14:01:11Z</time>
      </trkpt>
      <trkpt lat="45.16011" lon="4.83865">
        <ele>141</ele>
        <time>2009-03-04T14:01:13Z</time>
      </trkpt>
      <trkpt lat="45.16013" lon="4.83839">
        <ele>141</ele>
        <time>2009-03-04T14:01:16Z</time>
      </trkpt>
      <trkpt lat="45.16012" lon="4.83729">
        <ele>140</ele>
        <time>2009-03-04T14:01:29Z</time>
      </trkpt>
      <trkpt lat="45.16008" lon="4.83703">
        <ele>141</ele>
        <time>2009-03-04T14:01:32Z</time>
      </trkpt>
      <trkpt lat="45.15995" lon="4.83684">
        <ele>141</ele>
        <time>2009-03-04T14:01:35Z</time>
      </trkpt>
      <trkpt lat="45.1598" lon="4.83672">
        <ele>141</ele>
        <time>2009-03-04T14:01:37Z</time>
      </trkpt>
      <trkpt lat="45.15945" lon="4.83666">
        <ele>137</ele>
        <time>2009-03-04T14:01:43Z</time>
      </trkpt>
      <trkpt lat="45.15913" lon="4.83599">
        <ele>136</ele>
        <time>2009-03-04T14:01:52Z</time>
      </trkpt>
      <trkpt lat="45.15907" lon="4.83579">
        <ele>136</ele>
        <time>2009-03-04T14:01:55Z</time>
      </trkpt>
      <trkpt lat="45.15903" lon="4.83426">
        <ele>137</ele>
        <time>2009-03-04T14:02:12Z</time>
      </trkpt>
      <trkpt lat="45.15859" lon="4.83212">
        <ele>134</ele>
        <time>2009-03-04T14:02:37Z</time>
      </trkpt>
      <trkpt lat="45.16003" lon="4.83128">
        <ele>134</ele>
        <time>2009-03-04T14:03:02Z</time>
      </trkpt>
      <trkpt lat="45.16094" lon="4.83063">
        <ele>135</ele>
        <time>2009-03-04T14:03:18Z</time>
      </trkpt>
      <trkpt lat="45.16131" lon="4.83026">
        <ele>137</ele>
        <time>2009-03-04T14:03:26Z</time>
      </trkpt>
      <trkpt lat="45.16192" lon="4.82947">
        <ele>132</ele>
        <time>2009-03-04T14:03:39Z</time>
      </trkpt>
      <trkpt lat="45.16239" lon="4.82872">
        <ele>140</ele>
        <time>2009-03-04T14:03:50Z</time>
      </trkpt>
      <trkpt lat="45.1625" lon="4.82847">
        <ele>140</ele>
        <time>2009-03-04T14:03:53Z</time>
      </trkpt>
      <trkpt lat="45.16305" lon="4.82715">
        <ele>151</ele>
        <time>2009-03-04T14:04:11Z</time>
      </trkpt>
      <trkpt lat="45.16495" lon="4.82219">
        <ele>134</ele>
        <time>2009-03-04T14:05:14Z</time>
      </trkpt>
      <trkpt lat="45.16571" lon="4.82049">
        <ele>127</ele>
        <time>2009-03-04T14:05:37Z</time>
      </trkpt>
      <trkpt lat="45.16629" lon="4.81953">
        <ele>127</ele>
        <time>2009-03-04T14:05:51Z</time>
      </trkpt>
      <trkpt lat="45.16636" lon="4.81948">
        <ele>127</ele>
        <time>2009-03-04T14:05:53Z</time>
      </trkpt>
      <trkpt lat="45.16706" lon="4.81838">
        <ele>128</ele>
        <time>2009-03-04T14:06:09Z</time>
      </trkpt>
      <trkpt lat="45.16783" lon="4.81747">
        <ele>127</ele>
        <time>2009-03-04T14:06:25Z</time>
      </trkpt>
      <trkpt lat="45.16786" lon="4.81737">
        <ele>127</ele>
        <time>2009-03-04T14:06:27Z</time>
      </trkpt>
      <trkpt lat="45.16863" lon="4.81651">
        <ele>127</ele>
        <time>2009-03-04T14:06:42Z</time>
      </trkpt>
      <trkpt lat="45.16977" lon="4.81552">
        <ele>126</ele>
        <time>2009-03-04T14:07:04Z</time>
      </trkpt>
      <trkpt lat="45.17028" lon="4.81521">
        <ele>126</ele>
        <time>2009-03-04T14:07:13Z</time>
      </trkpt>
      <trkpt lat="45.17099" lon="4.81488">
        <ele>125</ele>
        <time>2009-03-04T14:07:25Z</time>
      </trkpt>
      <trkpt lat="45.17235" lon="4.81444">
        <ele>126</ele>
        <time>2009-03-04T14:07:47Z</time>
      </trkpt>
      <trkpt lat="45.17753" lon="4.81337">
        <ele>129</ele>
        <time>2009-03-04T14:09:11Z</time>
      </trkpt>
      <trkpt lat="45.17794" lon="4.81335">
        <ele>129</ele>
        <time>2009-03-04T14:09:17Z</time>
      </trkpt>
      <trkpt lat="45.17851" lon="4.81342">
        <ele>129</ele>
        <time>2009-03-04T14:09:27Z</time>
      </trkpt>
      <trkpt lat="45.18022" lon="4.814">
        <ele>137</ele>
        <time>2009-03-04T14:09:55Z</time>
      </trkpt>
      <trkpt lat="45.18145" lon="4.81415">
        <ele>134</ele>
        <time>2009-03-04T14:10:14Z</time>
      </trkpt>
      <trkpt lat="45.18184" lon="4.81414">
        <ele>134</ele>
        <time>2009-03-04T14:10:21Z</time>
      </trkpt>
      <trkpt lat="45.18378" lon="4.81388">
        <ele>135</ele>
        <time>2009-03-04T14:10:52Z</time>
      </trkpt>
      <trkpt lat="45.18416" lon="4.81393">
        <ele>135</ele>
        <time>2009-03-04T14:10:58Z</time>
      </trkpt>
      <trkpt lat="45.1842" lon="4.81406">
        <ele>135</ele>
        <time>2009-03-04T14:11:00Z</time>
      </trkpt>
      <trkpt lat="45.18432" lon="4.81402">
        <ele>135</ele>
        <time>2009-03-04T14:11:02Z</time>
      </trkpt>
      <trkpt lat="45.18433" lon="4.8139">
        <ele>135</ele>
        <time>2009-03-04T14:11:03Z</time>
      </trkpt>
      <trkpt lat="45.18426" lon="4.81383">
        <ele>135</ele>
        <time>2009-03-04T14:11:04Z</time>
      </trkpt>
      <trkpt lat="45.18425" lon="4.81355">
        <ele>127</ele>
        <time>2009-03-04T14:11:07Z</time>
      </trkpt>
      <trkpt lat="45.18426" lon="4.81383">
        <ele>135</ele>
        <time>2009-03-04T14:11:11Z</time>
      </trkpt>
      <trkpt lat="45.18416" lon="4.8139">
        <ele>135</ele>
        <time>2009-03-04T14:11:12Z</time>
      </trkpt>
      <trkpt lat="45.1842" lon="4.81406">
        <ele>135</ele>
        <time>2009-03-04T14:11:14Z</time>
      </trkpt>
      <trkpt lat="45.18428" lon="4.81406">
        <ele>135</ele>
        <time>2009-03-04T14:11:16Z</time>
      </trkpt>
      <trkpt lat="45.18433" lon="4.81396">
        <ele>135</ele>
        <time>2009-03-04T14:11:17Z</time>
      </trkpt>
      <trkpt lat="45.18484" lon="4.81398">
        <ele>138</ele>
        <time>2009-03-04T14:11:25Z</time>
      </trkpt>
      <trkpt lat="45.18531" lon="4.81402">
        <ele>138</ele>
        <time>2009-03-04T14:11:33Z</time>
      </trkpt>
      <trkpt lat="45.18541" lon="4.81409">
        <ele>138</ele>
        <time>2009-03-04T14:11:35Z</time>
      </trkpt>
      <trkpt lat="45.1856" lon="4.81411">
        <ele>139</ele>
        <time>2009-03-04T14:11:38Z</time>
      </trkpt>
      <trkpt lat="45.18783" lon="4.81424">
        <ele>138</ele>
        <time>2009-03-04T14:12:13Z</time>
      </trkpt>
      <trkpt lat="45.18834" lon="4.81424">
        <ele>138</ele>
        <time>2009-03-04T14:12:21Z</time>
      </trkpt>
      <trkpt lat="45.18842" lon="4.81419">
        <ele>138</ele>
        <time>2009-03-04T14:12:23Z</time>
      </trkpt>
      <trkpt lat="45.19107" lon="4.81441">
        <ele>145</ele>
        <time>2009-03-04T14:13:05Z</time>
      </trkpt>
      <trkpt lat="45.19205" lon="4.81441">
        <ele>145</ele>
        <time>2009-03-04T14:13:21Z</time>
      </trkpt>
      <trkpt lat="45.19682" lon="4.81462">
        <ele>146</ele>
        <time>2009-03-04T14:14:37Z</time>
      </trkpt>
      <trkpt lat="45.20292" lon="4.815">
        <ele>132</ele>
        <time>2009-03-04T14:16:15Z</time>
      </trkpt>
      <trkpt lat="45.20343" lon="4.815">
        <ele>132</ele>
        <time>2009-03-04T14:16:23Z</time>
      </trkpt>
      <trkpt lat="45.20364" lon="4.81483">
        <ele>132</ele>
        <time>2009-03-04T14:16:27Z</time>
      </trkpt>
      <trkpt lat="45.20371" lon="4.81504">
        <ele>132</ele>
        <time>2009-03-04T14:16:30Z</time>
      </trkpt>
      <trkpt lat="45.2039" lon="4.81511">
        <ele>130</ele>
        <time>2009-03-04T14:16:33Z</time>
      </trkpt>
      <trkpt lat="45.20401" lon="4.81594">
        <ele>131</ele>
        <time>2009-03-04T14:16:43Z</time>
      </trkpt>
      <trkpt lat="45.20393" lon="4.81713">
        <ele>137</ele>
        <time>2009-03-04T14:16:56Z</time>
      </trkpt>
      <trkpt lat="45.20395" lon="4.81739">
        <ele>137</ele>
        <time>2009-03-04T14:16:59Z</time>
      </trkpt>
      <trkpt lat="45.20409" lon="4.81776">
        <ele>137</ele>
        <time>2009-03-04T14:17:04Z</time>
      </trkpt>
      <trkpt lat="45.20432" lon="4.81807">
        <ele>157</ele>
        <time>2009-03-04T14:17:09Z</time>
      </trkpt>
      <trkpt lat="45.20454" lon="4.81821">
        <ele>157</ele>
        <time>2009-03-04T14:17:13Z</time>
      </trkpt>
      <trkpt lat="45.20481" lon="4.81829">
        <ele>157</ele>
        <time>2009-03-04T14:17:17Z</time>
      </trkpt>
      <trkpt lat="45.20551" lon="4.81824">
        <ele>156</ele>
        <time>2009-03-04T14:17:28Z</time>
      </trkpt>
      <trkpt lat="45.20713" lon="4.81795">
        <ele>151</ele>
        <time>2009-03-04T14:17:54Z</time>
      </trkpt>
      <trkpt lat="45.20775" lon="4.81788">
        <ele>140</ele>
        <time>2009-03-04T14:18:04Z</time>
      </trkpt>
      <trkpt lat="45.20802" lon="4.81791">
        <ele>139</ele>
        <time>2009-03-04T14:18:09Z</time>
      </trkpt>
      <trkpt lat="45.20885" lon="4.81852">
        <ele>145</ele>
        <time>2009-03-04T14:18:24Z</time>
      </trkpt>
      <trkpt lat="45.2094" lon="4.81911">
        <ele>150</ele>
        <time>2009-03-04T14:18:35Z</time>
      </trkpt>
      <trkpt lat="45.20986" lon="4.81976">
        <ele>157</ele>
        <time>2009-03-04T14:18:45Z</time>
      </trkpt>
      <trkpt lat="45.2101" lon="4.8203">
        <ele>157</ele>
        <time>2009-03-04T14:18:52Z</time>
      </trkpt>
      <trkpt lat="45.20973" lon="4.82078">
        <ele>157</ele>
        <time>2009-03-04T14:19:00Z</time>
      </trkpt>
      <trkpt lat="45.20942" lon="4.82143">
        <ele>168</ele>
        <time>2009-03-04T14:19:09Z</time>
      </trkpt>
      <trkpt lat="45.20926" lon="4.82157">
        <ele>168</ele>
        <time>2009-03-04T14:19:12Z</time>
      </trkpt>
      <trkpt lat="45.20905" lon="4.82162">
        <ele>168</ele>
        <time>2009-03-04T14:19:16Z</time>
      </trkpt>
      <trkpt lat="45.20869" lon="4.82143">
        <ele>181</ele>
        <time>2009-03-04T14:19:22Z</time>
      </trkpt>
      <trkpt lat="45.20831" lon="4.82144">
        <ele>181</ele>
        <time>2009-03-04T14:19:28Z</time>
      </trkpt>
      <trkpt lat="45.20823" lon="4.82141">
        <ele>181</ele>
        <time>2009-03-04T14:19:29Z</time>
      </trkpt>
      <trkpt lat="45.20823" lon="4.82137">
        <ele>181</ele>
        <time>2009-03-04T14:19:30Z</time>
      </trkpt>
      <trkpt lat="45.20858" lon="4.82059">
        <ele>185</ele>
        <time>2009-03-04T14:19:40Z</time>
      </trkpt>
      <trkpt lat="45.20859" lon="4.82046">
        <ele>185</ele>
        <time>2009-03-04T14:19:42Z</time>
      </trkpt>
      <trkpt lat="45.20856" lon="4.82038">
        <ele>182</ele>
        <time>2009-03-04T14:19:43Z</time>
      </trkpt>
      <trkpt lat="45.2085" lon="4.82035">
        <ele>182</ele>
        <time>2009-03-04T14:19:44Z</time>
      </trkpt>
      <trkpt lat="45.20842" lon="4.82037">
        <ele>182</ele>
        <time>2009-03-04T14:19:45Z</time>
      </trkpt>
      <trkpt lat="45.20822" lon="4.82057">
        <ele>185</ele>
        <time>2009-03-04T14:19:49Z</time>
      </trkpt>
      <trkpt lat="45.20786" lon="4.82046">
        <ele>207</ele>
        <time>2009-03-04T14:19:55Z</time>
      </trkpt>
      <trkpt lat="45.20731" lon="4.82055">
        <ele>207</ele>
        <time>2009-03-04T14:20:04Z</time>
      </trkpt>
      <trkpt lat="45.2068" lon="4.82056">
        <ele>217</ele>
        <time>2009-03-04T14:20:12Z</time>
      </trkpt>
      <trkpt lat="45.20569" lon="4.82102">
        <ele>224</ele>
        <time>2009-03-04T14:20:30Z</time>
      </trkpt>
      <trkpt lat="45.20421" lon="4.82125">
        <ele>247</ele>
        <time>2009-03-04T14:20:54Z</time>
      </trkpt>
      <trkpt lat="45.20399" lon="4.82149">
        <ele>268</ele>
        <time>2009-03-04T14:20:59Z</time>
      </trkpt>
      <trkpt lat="45.2039" lon="4.82168">
        <ele>268</ele>
        <time>2009-03-04T14:21:01Z</time>
      </trkpt>
      <trkpt lat="45.20387" lon="4.82224">
        <ele>284</ele>
        <time>2009-03-04T14:21:07Z</time>
      </trkpt>
      <trkpt lat="45.2033" lon="4.82269">
        <ele>284</ele>
        <time>2009-03-04T14:21:18Z</time>
      </trkpt>
      <trkpt lat="45.20269" lon="4.82325">
        <ele>301</ele>
        <time>2009-03-04T14:21:30Z</time>
      </trkpt>
      <trkpt lat="45.20245" lon="4.82319">
        <ele>301</ele>
        <time>2009-03-04T14:21:33Z</time>
      </trkpt>
      <trkpt lat="45.20196" lon="4.82283">
        <ele>294</ele>
        <time>2009-03-04T14:21:42Z</time>
      </trkpt>
      <trkpt lat="45.20161" lon="4.82282">
        <ele>294</ele>
        <time>2009-03-04T14:21:48Z</time>
      </trkpt>
      <trkpt lat="45.20146" lon="4.82305">
        <ele>305</ele>
        <time>2009-03-04T14:21:51Z</time>
      </trkpt>
      <trkpt lat="45.20148" lon="4.82318">
        <ele>305</ele>
        <time>2009-03-04T14:21:53Z</time>
      </trkpt>
      <trkpt lat="45.2019" lon="4.82356">
        <ele>305</ele>
        <time>2009-03-04T14:22:01Z</time>
      </trkpt>
      <trkpt lat="45.202" lon="4.8237">
        <ele>305</ele>
        <time>2009-03-04T14:22:03Z</time>
      </trkpt>
      <trkpt lat="45.20204" lon="4.82384">
        <ele>313</ele>
        <time>2009-03-04T14:22:05Z</time>
      </trkpt>
      <trkpt lat="45.202" lon="4.82404">
        <ele>313</ele>
        <time>2009-03-04T14:22:07Z</time>
      </trkpt>
      <trkpt lat="45.20192" lon="4.82413">
        <ele>313</ele>
        <time>2009-03-04T14:22:09Z</time>
      </trkpt>
      <trkpt lat="45.2017" lon="4.82421">
        <ele>313</ele>
        <time>2009-03-04T14:22:12Z</time>
      </trkpt>
      <trkpt lat="45.20182" lon="4.82499">
        <ele>321</ele>
        <time>2009-03-04T14:22:21Z</time>
      </trkpt>
      <trkpt lat="45.20203" lon="4.82577">
        <ele>327</ele>
        <time>2009-03-04T14:22:31Z</time>
      </trkpt>
      <trkpt lat="45.20208" lon="4.82609">
        <ele>327</ele>
        <time>2009-03-04T14:22:35Z</time>
      </trkpt>
      <trkpt lat="45.20144" lon="4.82656">
        <ele>319</ele>
        <time>2009-03-04T14:22:46Z</time>
      </trkpt>
      <trkpt lat="45.20074" lon="4.82689">
        <ele>337</ele>
        <time>2009-03-04T14:22:58Z</time>
      </trkpt>
      <trkpt lat="45.20048" lon="4.82696">
        <ele>337</ele>
        <time>2009-03-04T14:23:02Z</time>
      </trkpt>
      <trkpt lat="45.19989" lon="4.82701">
        <ele>346</ele>
        <time>2009-03-04T14:23:12Z</time>
      </trkpt>
      <trkpt lat="45.19914" lon="4.82685">
        <ele>345</ele>
        <time>2009-03-04T14:23:24Z</time>
      </trkpt>
      <trkpt lat="45.19858" lon="4.82721">
        <ele>352</ele>
        <time>2009-03-04T14:23:34Z</time>
      </trkpt>
      <trkpt lat="45.19796" lon="4.82741">
        <ele>352</ele>
        <time>2009-03-04T14:23:44Z</time>
      </trkpt>
      <trkpt lat="45.19768" lon="4.82756">
        <ele>348</ele>
        <time>2009-03-04T14:23:49Z</time>
      </trkpt>
      <trkpt lat="45.19739" lon="4.82777">
        <ele>348</ele>
        <time>2009-03-04T14:23:54Z</time>
      </trkpt>
      <trkpt lat="45.19706" lon="4.82813">
        <ele>352</ele>
        <time>2009-03-04T14:24:00Z</time>
      </trkpt>
      <trkpt lat="45.19681" lon="4.82826">
        <ele>352</ele>
        <time>2009-03-04T14:24:05Z</time>
      </trkpt>
      <trkpt lat="45.19495" lon="4.82855">
        <ele>358</ele>
        <time>2009-03-04T14:24:35Z</time>
      </trkpt>
      <trkpt lat="45.19493" lon="4.83054">
        <ele>356</ele>
        <time>2009-03-04T14:24:57Z</time>
      </trkpt>
      <trkpt lat="45.195" lon="4.83204">
        <ele>356</ele>
        <time>2009-03-04T14:25:14Z</time>
      </trkpt>
      <trkpt lat="45.19578" lon="4.83333">
        <ele>352</ele>
        <time>2009-03-04T14:25:33Z</time>
      </trkpt>
      <trkpt lat="45.19673" lon="4.83517">
        <ele>353</ele>
        <time>2009-03-04T14:25:59Z</time>
      </trkpt>
      <trkpt lat="45.1976" lon="4.83625">
        <ele>349</ele>
        <time>2009-03-04T14:26:18Z</time>
      </trkpt>
      <trkpt lat="45.19839" lon="4.83747">
        <ele>341</ele>
        <time>2009-03-04T14:26:36Z</time>
      </trkpt>
      <trkpt lat="45.19887" lon="4.83823">
        <ele>338</ele>
        <time>2009-03-04T14:26:48Z</time>
      </trkpt>
      <trkpt lat="45.19885" lon="4.83888">
        <ele>337</ele>
        <time>2009-03-04T14:26:55Z</time>
      </trkpt>
      <trkpt lat="45.19872" lon="4.83957">
        <ele>333</ele>
        <time>2009-03-04T14:27:03Z</time>
      </trkpt>
      <trkpt lat="45.19871" lon="4.83984">
        <ele>329</ele>
        <time>2009-03-04T14:27:06Z</time>
      </trkpt>
      <trkpt lat="45.1988" lon="4.84028">
        <ele>338</ele>
        <time>2009-03-04T14:27:11Z</time>
      </trkpt>
      <trkpt lat="45.19994" lon="4.84213">
        <ele>329</ele>
        <time>2009-03-04T14:27:39Z</time>
      </trkpt>
      <trkpt lat="45.2003" lon="4.84283">
        <ele>329</ele>
        <time>2009-03-04T14:27:49Z</time>
      </trkpt>
      <trkpt lat="45.20032" lon="4.84306">
        <ele>328</ele>
        <time>2009-03-04T14:27:52Z</time>
      </trkpt>
      <trkpt lat="45.20027" lon="4.84368">
        <ele>328</ele>
        <time>2009-03-04T14:27:59Z</time>
      </trkpt>
      <trkpt lat="45.2" lon="4.84652">
        <ele>343</ele>
        <time>2009-03-04T14:28:31Z</time>
      </trkpt>
      <trkpt lat="45.19983" lon="4.84708">
        <ele>343</ele>
        <time>2009-03-04T14:28:38Z</time>
      </trkpt>
      <trkpt lat="45.19881" lon="4.84875">
        <ele>344</ele>
        <time>2009-03-04T14:29:03Z</time>
      </trkpt>
      <trkpt lat="45.19869" lon="4.84885">
        <ele>345</ele>
        <time>2009-03-04T14:29:05Z</time>
      </trkpt>
      <trkpt lat="45.19735" lon="4.84947">
        <ele>345</ele>
        <time>2009-03-04T14:29:28Z</time>
      </trkpt>
      <trkpt lat="45.19723" lon="4.84958">
        <ele>345</ele>
        <time>2009-03-04T14:29:30Z</time>
      </trkpt>
      <trkpt lat="45.19711" lon="4.84989">
        <ele>344</ele>
        <time>2009-03-04T14:29:34Z</time>
      </trkpt>
      <trkpt lat="45.19705" lon="4.85021">
        <ele>329</ele>
        <time>2009-03-04T14:29:38Z</time>
      </trkpt>
      <trkpt lat="45.19682" lon="4.85208">
        <ele>325</ele>
        <time>2009-03-04T14:29:59Z</time>
      </trkpt>
      <trkpt lat="45.19666" lon="4.85273">
        <ele>327</ele>
        <time>2009-03-04T14:30:07Z</time>
      </trkpt>
      <trkpt lat="45.19571" lon="4.85453">
        <ele>317</ele>
        <time>2009-03-04T14:30:32Z</time>
      </trkpt>
      <trkpt lat="45.19563" lon="4.85462">
        <ele>314</ele>
        <time>2009-03-04T14:30:34Z</time>
      </trkpt>
      <trkpt lat="45.19523" lon="4.85457">
        <ele>306</ele>
        <time>2009-03-04T14:30:40Z</time>
      </trkpt>
      <trkpt lat="45.19463" lon="4.85408">
        <ele>306</ele>
        <time>2009-03-04T14:30:51Z</time>
      </trkpt>
      <trkpt lat="45.19428" lon="4.85387">
        <ele>300</ele>
        <time>2009-03-04T14:30:57Z</time>
      </trkpt>
      <trkpt lat="45.194" lon="4.85378">
        <ele>300</ele>
        <time>2009-03-04T14:31:02Z</time>
      </trkpt>
      <trkpt lat="45.19374" lon="4.85377">
        <ele>293</ele>
        <time>2009-03-04T14:31:06Z</time>
      </trkpt>
      <trkpt lat="45.19277" lon="4.85435">
        <ele>272</ele>
        <time>2009-03-04T14:31:23Z</time>
      </trkpt>
      <trkpt lat="45.19261" lon="4.85457">
        <ele>272</ele>
        <time>2009-03-04T14:31:27Z</time>
      </trkpt>
      <trkpt lat="45.19249" lon="4.85565">
        <ele>279</ele>
        <time>2009-03-04T14:31:39Z</time>
      </trkpt>
      <trkpt lat="45.19238" lon="4.85586">
        <ele>279</ele>
        <time>2009-03-04T14:31:42Z</time>
      </trkpt>
      <trkpt lat="45.19211" lon="4.85609">
        <ele>279</ele>
        <time>2009-03-04T14:31:47Z</time>
      </trkpt>
      <trkpt lat="45.19165" lon="4.85627">
        <ele>276</ele>
        <time>2009-03-04T14:31:54Z</time>
      </trkpt>
      <trkpt lat="45.19134" lon="4.85654">
        <ele>276</ele>
        <time>2009-03-04T14:32:00Z</time>
      </trkpt>
      <trkpt lat="45.19082" lon="4.85765">
        <ele>258</ele>
        <time>2009-03-04T14:32:15Z</time>
      </trkpt>
      <trkpt lat="45.1903" lon="4.85843">
        <ele>248</ele>
        <time>2009-03-04T14:32:27Z</time>
      </trkpt>
      <trkpt lat="45.19006" lon="4.85864">
        <ele>248</ele>
        <time>2009-03-04T14:32:32Z</time>
      </trkpt>
      <trkpt lat="45.18911" lon="4.85906">
        <ele>245</ele>
        <time>2009-03-04T14:32:48Z</time>
      </trkpt>
      <trkpt lat="45.189" lon="4.85923">
        <ele>245</ele>
        <time>2009-03-04T14:32:51Z</time>
      </trkpt>
      <trkpt lat="45.18906" lon="4.85954">
        <ele>245</ele>
        <time>2009-03-04T14:32:54Z</time>
      </trkpt>
      <trkpt lat="45.18921" lon="4.85961">
        <ele>229</ele>
        <time>2009-03-04T14:32:57Z</time>
      </trkpt>
      <trkpt lat="45.19019" lon="4.85936">
        <ele>239</ele>
        <time>2009-03-04T14:33:13Z</time>
      </trkpt>
      <trkpt lat="45.19093" lon="4.85928">
        <ele>235</ele>
        <time>2009-03-04T14:33:24Z</time>
      </trkpt>
      <trkpt lat="45.1911" lon="4.85937">
        <ele>235</ele>
        <time>2009-03-04T14:33:27Z</time>
      </trkpt>
      <trkpt lat="45.19115" lon="4.85954">
        <ele>235</ele>
        <time>2009-03-04T14:33:29Z</time>
      </trkpt>
      <trkpt lat="45.1911" lon="4.85983">
        <ele>222</ele>
        <time>2009-03-04T14:33:33Z</time>
      </trkpt>
      <trkpt lat="45.19092" lon="4.85999">
        <ele>222</ele>
        <time>2009-03-04T14:33:36Z</time>
      </trkpt>
      <trkpt lat="45.19055" lon="4.86007">
        <ele>222</ele>
        <time>2009-03-04T14:33:42Z</time>
      </trkpt>
      <trkpt lat="45.18943" lon="4.86096">
        <ele>213</ele>
        <time>2009-03-04T14:34:03Z</time>
      </trkpt>
      <trkpt lat="45.18815" lon="4.86184">
        <ele>201</ele>
        <time>2009-03-04T14:34:26Z</time>
      </trkpt>
      <trkpt lat="45.18787" lon="4.86196">
        <ele>199</ele>
        <time>2009-03-04T14:34:30Z</time>
      </trkpt>
      <trkpt lat="45.18788" lon="4.86262">
        <ele>193</ele>
        <time>2009-03-04T14:34:38Z</time>
      </trkpt>
      <trkpt lat="45.18694" lon="4.86272">
        <ele>193</ele>
        <time>2009-03-04T14:34:53Z</time>
      </trkpt>
      <trkpt lat="45.18626" lon="4.86288">
        <ele>193</ele>
        <time>2009-03-04T14:35:04Z</time>
      </trkpt>
      <trkpt lat="45.18609" lon="4.86286">
        <ele>191</ele>
        <time>2009-03-04T14:35:07Z</time>
      </trkpt>
      <trkpt lat="45.18569" lon="4.86268">
        <ele>191</ele>
        <time>2009-03-04T14:35:13Z</time>
      </trkpt>
      <trkpt lat="45.18474" lon="4.8627">
        <ele>184</ele>
        <time>2009-03-04T14:35:28Z</time>
      </trkpt>
      <trkpt lat="45.18452" lon="4.8626">
        <ele>179</ele>
        <time>2009-03-04T14:35:32Z</time>
      </trkpt>
      <trkpt lat="45.18453" lon="4.86283">
        <ele>179</ele>
        <time>2009-03-04T14:35:35Z</time>
      </trkpt>
      <trkpt lat="45.18452" lon="4.8626">
        <ele>179</ele>
        <time>2009-03-04T14:35:37Z</time>
      </trkpt>
      <trkpt lat="45.18434" lon="4.86255">
        <ele>179</ele>
        <time>2009-03-04T14:35:40Z</time>
      </trkpt>
      <trkpt lat="45.18412" lon="4.86258">
        <ele>179</ele>
        <time>2009-03-04T14:35:44Z</time>
      </trkpt>
      <trkpt lat="45.1824" lon="4.86301">
        <ele>170</ele>
        <time>2009-03-04T14:36:12Z</time>
      </trkpt>
      <trkpt lat="45.18135" lon="4.86306">
        <ele>169</ele>
        <time>2009-03-04T14:36:29Z</time>
      </trkpt>
      <trkpt lat="45.18064" lon="4.86307">
        <ele>169</ele>
        <time>2009-03-04T14:36:40Z</time>
      </trkpt>
      <trkpt lat="45.17973" lon="4.86299">
        <ele>167</ele>
        <time>2009-03-04T14:36:55Z</time>
      </trkpt>
      <trkpt lat="45.17893" lon="4.86267">
        <ele>165</ele>
        <time>2009-03-04T14:37:08Z</time>
      </trkpt>
      <trkpt lat="45.17829" lon="4.86274">
        <ele>167</ele>
        <time>2009-03-04T14:37:18Z</time>
      </trkpt>
      <trkpt lat="45.17786" lon="4.86338">
        <ele>166</ele>
        <time>2009-03-04T14:37:28Z</time>
      </trkpt>
      <trkpt lat="45.17784" lon="4.86365">
        <ele>166</ele>
        <time>2009-03-04T14:37:31Z</time>
      </trkpt>
      <trkpt lat="45.17759" lon="4.86414">
        <ele>166</ele>
        <time>2009-03-04T14:37:38Z</time>
      </trkpt>
      <trkpt lat="45.17711" lon="4.86492">
        <ele>166</ele>
        <time>2009-03-04T14:37:50Z</time>
      </trkpt>
      <trkpt lat="45.17656" lon="4.8662">
        <ele>164</ele>
        <time>2009-03-04T14:38:07Z</time>
      </trkpt>
      <trkpt lat="45.17608" lon="4.86786">
        <ele>168</ele>
        <time>2009-03-04T14:38:27Z</time>
      </trkpt>
      <trkpt lat="45.17602" lon="4.86825">
        <ele>166</ele>
        <time>2009-03-04T14:38:31Z</time>
      </trkpt>
      <trkpt lat="45.17605" lon="4.86845">
        <ele>166</ele>
        <time>2009-03-04T14:38:34Z</time>
      </trkpt>
      <trkpt lat="45.17621" lon="4.86872">
        <ele>166</ele>
        <time>2009-03-04T14:38:38Z</time>
      </trkpt>
      <trkpt lat="45.1763" lon="4.86902">
        <ele>168</ele>
        <time>2009-03-04T14:38:41Z</time>
      </trkpt>
      <trkpt lat="45.1763" lon="4.86922">
        <ele>168</ele>
        <time>2009-03-04T14:38:44Z</time>
      </trkpt>
      <trkpt lat="45.17586" lon="4.8696">
        <ele>168</ele>
        <time>2009-03-04T14:38:52Z</time>
      </trkpt>
      <trkpt lat="45.17514" lon="4.8704">
        <ele>170</ele>
        <time>2009-03-04T14:39:07Z</time>
      </trkpt>
      <trkpt lat="45.17464" lon="4.87074">
        <ele>168</ele>
        <time>2009-03-04T14:39:15Z</time>
      </trkpt>
      <trkpt lat="45.17416" lon="4.87082">
        <ele>169</ele>
        <time>2009-03-04T14:39:23Z</time>
      </trkpt>
      <trkpt lat="45.17373" lon="4.87099">
        <ele>170</ele>
        <time>2009-03-04T14:39:30Z</time>
      </trkpt>
      <trkpt lat="45.17251" lon="4.87126">
        <ele>170</ele>
        <time>2009-03-04T14:39:50Z</time>
      </trkpt>
      <trkpt lat="45.17206" lon="4.87124">
        <ele>174</ele>
        <time>2009-03-04T14:39:57Z</time>
      </trkpt>
      <trkpt lat="45.17164" lon="4.87102">
        <ele>174</ele>
        <time>2009-03-04T14:40:04Z</time>
      </trkpt>
      <trkpt lat="45.17034" lon="4.87192">
        <ele>174</ele>
        <time>2009-03-04T14:40:28Z</time>
      </trkpt>
      <trkpt lat="45.1702" lon="4.87181">
        <ele>174</ele>
        <time>2009-03-04T14:40:30Z</time>
      </trkpt>
      <trkpt lat="45.17003" lon="4.87176">
        <ele>174</ele>
        <time>2009-03-04T14:40:33Z</time>
      </trkpt>
      <trkpt lat="45.16986" lon="4.87172">
        <ele>174</ele>
        <time>2009-03-04T14:40:36Z</time>
      </trkpt>
      <trkpt lat="45.17003" lon="4.87176">
        <ele>174</ele>
        <time>2009-03-04T14:40:39Z</time>
      </trkpt>
      <trkpt lat="45.17022" lon="4.87446">
        <ele>172</ele>
        <time>2009-03-04T14:41:09Z</time>
      </trkpt>
      <trkpt lat="45.17028" lon="4.87617">
        <ele>172</ele>
        <time>2009-03-04T14:41:28Z</time>
      </trkpt>
      <trkpt lat="45.17004" lon="4.87739">
        <ele>172</ele>
        <time>2009-03-04T14:41:43Z</time>
      </trkpt>
      <trkpt lat="45.16994" lon="4.87744">
        <ele>172</ele>
        <time>2009-03-04T14:41:44Z</time>
      </trkpt>
      <trkpt lat="45.16993" lon="4.87752">
        <ele>172</ele>
        <time>2009-03-04T14:41:45Z</time>
      </trkpt>
      <trkpt lat="45.17" lon="4.87758">
        <ele>172</ele>
        <time>2009-03-04T14:41:47Z</time>
      </trkpt>
      <trkpt lat="45.16969" lon="4.87944">
        <ele>174</ele>
        <time>2009-03-04T14:42:08Z</time>
      </trkpt>
      <trkpt lat="45.16972" lon="4.88036">
        <ele>175</ele>
        <time>2009-03-04T14:42:19Z</time>
      </trkpt>
      <trkpt lat="45.16987" lon="4.8822">
        <ele>177</ele>
        <time>2009-03-04T14:42:40Z</time>
      </trkpt>
      <trkpt lat="45.16985" lon="4.88295">
        <ele>178</ele>
        <time>2009-03-04T14:42:48Z</time>
      </trkpt>
      <trkpt lat="45.16848" lon="4.89073">
        <ele>191</ele>
        <time>2009-03-04T14:44:19Z</time>
      </trkpt>
      <trkpt lat="45.1684" lon="4.89096">
        <ele>191</ele>
        <time>2009-03-04T14:44:21Z</time>
      </trkpt>
      <trkpt lat="45.168" lon="4.89134">
        <ele>190</ele>
        <time>2009-03-04T14:44:29Z</time>
      </trkpt>
      <trkpt lat="45.16632" lon="4.89207">
        <ele>194</ele>
        <time>2009-03-04T14:44:57Z</time>
      </trkpt>
      <trkpt lat="45.1659" lon="4.8925">
        <ele>194</ele>
        <time>2009-03-04T14:45:06Z</time>
      </trkpt>
      <trkpt lat="45.16526" lon="4.89471">
        <ele>202</ele>
        <time>2009-03-04T14:45:33Z</time>
      </trkpt>
      <trkpt lat="45.16435" lon="4.89839">
        <ele>211</ele>
        <time>2009-03-04T14:46:17Z</time>
      </trkpt>
      <trkpt lat="45.16408" lon="4.89912">
        <ele>211</ele>
        <time>2009-03-04T14:46:26Z</time>
      </trkpt>
      <trkpt lat="45.16349" lon="4.90048">
        <ele>211</ele>
        <time>2009-03-04T14:46:44Z</time>
      </trkpt>
      <trkpt lat="45.16284" lon="4.90149">
        <ele>214</ele>
        <time>2009-03-04T14:46:59Z</time>
      </trkpt>
      <trkpt lat="45.16234" lon="4.90236">
        <ele>216</ele>
        <time>2009-03-04T14:47:12Z</time>
      </trkpt>
      <trkpt lat="45.16135" lon="4.9045">
        <ele>218</ele>
        <time>2009-03-04T14:47:41Z</time>
      </trkpt>
      <trkpt lat="45.16104" lon="4.90508">
        <ele>222</ele>
        <time>2009-03-04T14:47:49Z</time>
      </trkpt>
      <trkpt lat="45.16085" lon="4.90553">
        <ele>226</ele>
        <time>2009-03-04T14:47:55Z</time>
      </trkpt>
      <trkpt lat="45.15993" lon="4.90846">
        <ele>232</ele>
        <time>2009-03-04T14:48:31Z</time>
      </trkpt>
      <trkpt lat="45.15965" lon="4.90922">
        <ele>232</ele>
        <time>2009-03-04T14:48:41Z</time>
      </trkpt>
      <trkpt lat="45.15947" lon="4.90959">
        <ele>234</ele>
        <time>2009-03-04T14:48:46Z</time>
      </trkpt>
      <trkpt lat="45.15915" lon="4.90993">
        <ele>234</ele>
        <time>2009-03-04T14:48:52Z</time>
      </trkpt>
      <trkpt lat="45.15766" lon="4.91069">
        <ele>241</ele>
        <time>2009-03-04T14:49:18Z</time>
      </trkpt>
      <trkpt lat="45.15652" lon="4.9115">
        <ele>243</ele>
        <time>2009-03-04T14:49:38Z</time>
      </trkpt>
      <trkpt lat="45.15554" lon="4.91241">
        <ele>253</ele>
        <time>2009-03-04T14:49:57Z</time>
      </trkpt>
      <trkpt lat="45.15445" lon="4.91387">
        <ele>239</ele>
        <time>2009-03-04T14:50:21Z</time>
      </trkpt>
      <trkpt lat="45.15435" lon="4.91387">
        <ele>239</ele>
        <time>2009-03-04T14:50:23Z</time>
      </trkpt>
      <trkpt lat="45.15434" lon="4.91395">
        <ele>239</ele>
        <time>2009-03-04T14:50:24Z</time>
      </trkpt>
      <trkpt lat="45.15437" lon="4.91398">
        <ele>239</ele>
        <time>2009-03-04T14:50:24Z</time>
      </trkpt>
      <trkpt lat="45.15185" lon="4.91759">
        <ele>233</ele>
        <time>2009-03-04T14:51:21Z</time>
      </trkpt>
      <trkpt lat="45.15097" lon="4.91909">
        <ele>232</ele>
        <time>2009-03-04T14:51:43Z</time>
      </trkpt>
      <trkpt lat="45.14839" lon="4.92459">
        <ele>245</ele>
        <time>2009-03-04T14:52:58Z</time>
      </trkpt>
      <trkpt lat="45.14672" lon="4.92937">
        <ele>242</ele>
        <time>2009-03-04T14:53:58Z</time>
      </trkpt>
      <trkpt lat="45.14512" lon="4.93171">
        <ele>247</ele>
        <time>2009-03-04T14:54:35Z</time>
      </trkpt>
      <trkpt lat="45.14396" lon="4.93356">
        <ele>252</ele>
        <time>2009-03-04T14:55:03Z</time>
      </trkpt>
      <trkpt lat="45.14211" lon="4.93673">
        <ele>262</ele>
        <time>2009-03-04T14:55:50Z</time>
      </trkpt>
      <trkpt lat="45.14158" lon="4.93777">
        <ele>267</ele>
        <time>2009-03-04T14:56:04Z</time>
      </trkpt>
      <trkpt lat="45.13979" lon="4.94188">
        <ele>286</ele>
        <time>2009-03-04T14:56:59Z</time>
      </trkpt>
      <trkpt lat="45.13945" lon="4.94238">
        <ele>287</ele>
        <time>2009-03-04T14:57:06Z</time>
      </trkpt>
      <trkpt lat="45.13868" lon="4.94328">
        <ele>283</ele>
        <time>2009-03-04T14:57:22Z</time>
      </trkpt>
      <trkpt lat="45.13851" lon="4.94355">
        <ele>283</ele>
        <time>2009-03-04T14:57:27Z</time>
      </trkpt>
      <trkpt lat="45.13736" lon="4.94645">
        <ele>289</ele>
        <time>2009-03-04T14:58:04Z</time>
      </trkpt>
      <trkpt lat="45.13699" lon="4.94692">
        <ele>283</ele>
        <time>2009-03-04T14:58:12Z</time>
      </trkpt>
      <trkpt lat="45.13684" lon="4.94704">
        <ele>283</ele>
        <time>2009-03-04T14:58:15Z</time>
      </trkpt>
      <trkpt lat="45.13631" lon="4.94769">
        <ele>292</ele>
        <time>2009-03-04T14:58:26Z</time>
      </trkpt>
      <trkpt lat="45.13614" lon="4.94784">
        <ele>286</ele>
        <time>2009-03-04T14:58:29Z</time>
      </trkpt>
      <trkpt lat="45.13531" lon="4.94815">
        <ele>288</ele>
        <time>2009-03-04T14:58:43Z</time>
      </trkpt>
      <trkpt lat="45.13422" lon="4.94822">
        <ele>283</ele>
        <time>2009-03-04T14:59:00Z</time>
      </trkpt>
      <trkpt lat="45.13351" lon="4.94854">
        <ele>281</ele>
        <time>2009-03-04T14:59:12Z</time>
      </trkpt>
      <trkpt lat="45.13321" lon="4.9488">
        <ele>280</ele>
        <time>2009-03-04T14:59:18Z</time>
      </trkpt>
      <trkpt lat="45.13312" lon="4.94899">
        <ele>280</ele>
        <time>2009-03-04T14:59:21Z</time>
      </trkpt>
      <trkpt lat="45.13308" lon="4.94921">
        <ele>280</ele>
        <time>2009-03-04T14:59:23Z</time>
      </trkpt>
      <trkpt lat="45.13307" lon="4.94986">
        <ele>278</ele>
        <time>2009-03-04T14:59:30Z</time>
      </trkpt>
      <trkpt lat="45.13286" lon="4.95036">
        <ele>275</ele>
        <time>2009-03-04T14:59:37Z</time>
      </trkpt>
      <trkpt lat="45.13267" lon="4.95058">
        <ele>268</ele>
        <time>2009-03-04T14:59:41Z</time>
      </trkpt>
      <trkpt lat="45.13209" lon="4.95094">
        <ele>268</ele>
        <time>2009-03-04T14:59:51Z</time>
      </trkpt>
      <trkpt lat="45.13184" lon="4.95124">
        <ele>269</ele>
        <time>2009-03-04T14:59:56Z</time>
      </trkpt>
      <trkpt lat="45.13168" lon="4.95174">
        <ele>265</ele>
        <time>2009-03-04T15:00:03Z</time>
      </trkpt>
      <trkpt lat="45.13142" lon="4.95328">
        <ele>262</ele>
        <time>2009-03-04T15:00:20Z</time>
      </trkpt>
      <trkpt lat="45.13137" lon="4.95347">
        <ele>262</ele>
        <time>2009-03-04T15:00:23Z</time>
      </trkpt>
      <trkpt lat="45.13124" lon="4.95369">
        <ele>261</ele>
        <time>2009-03-04T15:00:26Z</time>
      </trkpt>
      <trkpt lat="45.13096" lon="4.95398">
        <ele>262</ele>
        <time>2009-03-04T15:00:32Z</time>
      </trkpt>
      <trkpt lat="45.13063" lon="4.9542">
        <ele>262</ele>
        <time>2009-03-04T15:00:37Z</time>
      </trkpt>
      <trkpt lat="45.12837" lon="4.95536">
        <ele>265</ele>
        <time>2009-03-04T15:01:16Z</time>
      </trkpt>
      <trkpt lat="45.12706" lon="4.95674">
        <ele>267</ele>
        <time>2009-03-04T15:01:42Z</time>
      </trkpt>
      <trkpt lat="45.1269" lon="4.95687">
        <ele>267</ele>
        <time>2009-03-04T15:01:45Z</time>
      </trkpt>
      <trkpt lat="45.12635" lon="4.95716">
        <ele>265</ele>
        <time>2009-03-04T15:01:54Z</time>
      </trkpt>
      <trkpt lat="45.12614" lon="4.95734">
        <ele>258</ele>
        <time>2009-03-04T15:01:58Z</time>
      </trkpt>
      <trkpt lat="45.12562" lon="4.95827">
        <ele>256</ele>
        <time>2009-03-04T15:02:12Z</time>
      </trkpt>
      <trkpt lat="45.12423" lon="4.96147">
        <ele>246</ele>
        <time>2009-03-04T15:02:54Z</time>
      </trkpt>
      <trkpt lat="45.12375" lon="4.9624">
        <ele>240</ele>
        <time>2009-03-04T15:03:07Z</time>
      </trkpt>
      <trkpt lat="45.12343" lon="4.96277">
        <ele>240</ele>
        <time>2009-03-04T15:03:14Z</time>
      </trkpt>
      <trkpt lat="45.12273" lon="4.96327">
        <ele>234</ele>
        <time>2009-03-04T15:03:26Z</time>
      </trkpt>
      <trkpt lat="45.12071" lon="4.96418">
        <ele>219</ele>
        <time>2009-03-04T15:04:00Z</time>
      </trkpt>
      <trkpt lat="45.12019" lon="4.96476">
        <ele>211</ele>
        <time>2009-03-04T15:04:11Z</time>
      </trkpt>
      <trkpt lat="45.11981" lon="4.9649">
        <ele>211</ele>
        <time>2009-03-04T15:04:17Z</time>
      </trkpt>
      <trkpt lat="45.11946" lon="4.9651">
        <ele>207</ele>
        <time>2009-03-04T15:04:23Z</time>
      </trkpt>
      <trkpt lat="45.11917" lon="4.96549">
        <ele>203</ele>
        <time>2009-03-04T15:04:30Z</time>
      </trkpt>
      <trkpt lat="45.1189" lon="4.96601">
        <ele>203</ele>
        <time>2009-03-04T15:04:37Z</time>
      </trkpt>
      <trkpt lat="45.11836" lon="4.96724">
        <ele>197</ele>
        <time>2009-03-04T15:04:53Z</time>
      </trkpt>
      <trkpt lat="45.11784" lon="4.96791">
        <ele>196</ele>
        <time>2009-03-04T15:05:05Z</time>
      </trkpt>
    </trkseg>
  </trk>
</gpx>